Port Heiden, AK (99549)

11:40 AM AKST on December 07, 2016 (GMT -0900)
Port Heiden | | Change Station

Elev 95 ft 56.96 °N, 158.63 °W | Updated 6 minutes ago

Light Snow
Light Snow
12 °F
Feels Like -5 °F
N
17
Wind Variable Wind from NE

Today
High -- | Low -- °F
--% Chance of Precip.
Yesterday
High -- | Low -- °F
Precip. -- in
Pressure 30.20 in
Visibility 9.0 miles
Clouds Scattered Clouds 1100 ft
Mostly Cloudy 2500 ft
Overcast 4800 ft
Windchill -5 °F
Dew Point 9 °F
Humidity 85%
Rainfall 0.00 in
Snow Depth Not available.
9:57 AM 4:54 PM
First Quarter, 55% visible
SPECI PAPH 072034Z AUTO 05015KT 9SM -SN SCT011 BKN025 OVC048 M11/M13 A3020 RMK AO2 SNB25 P0000 FZRANO
Pressure 30.20 in
Visibility 9.0 miles
Clouds Scattered Clouds 1100 ft
Mostly Cloudy 2500 ft
Overcast 4800 ft
Windchill -5 °F
Dew Point 9 °F
Humidity 85%
Rainfall 0.00 in
Snow Depth Not available.
9:57 AM 4:54 PM
First Quarter, 55% visible
SPECI PAPH 072034Z AUTO 05015KT 9SM -SN SCT011 BKN025 OVC048 M11/M13 A3020 RMK AO2 SNB25 P0000 FZRANO

10-Day Weather Forecast

Almanac

Astronomy

Dec. 07, 2016 Rise Set
Actual Time
Civil Twilight
Nautical Twilight
Astronomical Twilight
Moon
Length of Visible Light
Length of Day
Tomorrow will be .
, % of the Moon is Illuminated

Today's Extremes

State Highs State Lows

Community

WunderPhotos

Upload Photos

1,956,170 photos uploaded!

WunderBlog® & News

Nearby

Air Quality

  Air Quality AQ Index Pollutant
Not available.

Snow Depth

Station Depth Elevation

Earthquake Activity

City Distance Mag. Time & Date
Minimum magnitude displayed is 2.5.

Coastal Water Temperatures

Place Temperature

Stations

Nearby Weather Stations

Station Location Temp. Windchill Dew Point Humidity Wind Precip. Elev Updated Type
                   

Watches & Warnings

There are currently no watches in effect.